createdAt,value
2018-04-27T00:01:21.150Z,99.90
2018-04-27T00:03:48.819Z,99.90
2018-04-27T00:06:16.545Z,99.90
2018-04-27T00:08:44.820Z,99.90
2018-04-27T00:11:12.465Z,99.90
2018-04-27T00:13:41.804Z,99.90
2018-04-27T00:16:09.551Z,99.90
2018-04-27T00:18:37.211Z,99.90
2018-04-27T00:21:04.861Z,99.90
2018-04-27T00:23:32.533Z,99.90
2018-04-27T00:26:00.301Z,99.90
2018-04-27T00:28:27.998Z,99.90
2018-04-27T00:30:55.653Z,99.90
2018-04-27T00:33:23.326Z,99.90
2018-04-27T00:35:50.987Z,99.90
2018-04-27T00:38:18.656Z,99.90
2018-04-27T00:40:46.331Z,99.90
2018-04-27T00:43:14.045Z,99.90
2018-04-27T00:45:41.727Z,99.90
2018-04-27T00:48:09.489Z,99.90
2018-04-27T00:50:37.149Z,99.90
2018-04-27T00:53:10.932Z,99.90
2018-04-27T00:55:38.603Z,99.90
2018-04-27T00:58:06.269Z,99.90
2018-04-27T01:00:33.938Z,99.90
2018-04-27T01:03:01.588Z,99.90
2018-04-27T01:05:29.256Z,99.90
2018-04-27T01:07:56.919Z,99.90
2018-04-27T01:10:24.594Z,99.90
2018-04-27T01:12:52.244Z,99.90
2018-04-27T01:15:19.907Z,99.90
2018-04-27T01:17:47.568Z,99.90
2018-04-27T01:20:15.227Z,99.90
2018-04-27T01:25:17.862Z,99.90
2018-04-27T01:27:45.491Z,99.90
2018-04-27T01:30:13.166Z,99.90
2018-04-27T01:32:40.806Z,99.90
2018-04-27T01:35:08.581Z,99.90
2018-04-27T01:37:36.249Z,99.90
2018-04-27T01:40:03.940Z,99.90
2018-04-27T01:42:31.614Z,99.90
2018-04-27T01:44:59.271Z,99.90
2018-04-27T01:47:26.919Z,99.90
2018-04-27T01:49:54.592Z,99.90
2018-04-27T01:52:22.324Z,99.90
2018-04-27T01:54:49.987Z,99.90
2018-04-27T01:57:17.768Z,99.90
2018-04-27T01:59:45.512Z,99.90
2018-04-27T02:02:13.165Z,99.90
2018-04-27T02:04:40.831Z,99.90
2018-04-27T02:07:09.256Z,99.90
2018-04-27T02:09:37.024Z,99.90
2018-04-27T02:12:04.654Z,99.90
2018-04-27T02:14:32.309Z,99.90
2018-04-27T02:16:59.968Z,99.90
2018-04-27T02:19:27.640Z,99.90
2018-04-27T02:21:55.291Z,99.90
2018-04-27T02:24:22.955Z,99.90
2018-04-27T02:26:50.629Z,99.90
2018-04-27T02:29:18.278Z,99.90
2018-04-27T02:31:46.693Z,99.90
2018-04-27T02:34:14.341Z,99.90
2018-04-27T02:36:42.093Z,99.90
2018-04-27T02:39:09.746Z,99.90
2018-04-27T02:41:37.460Z,99.90
2018-04-27T02:44:05.077Z,99.90
2018-04-27T02:46:32.742Z,99.90
2018-04-27T02:49:00.396Z,99.90
2018-04-27T02:51:28.151Z,99.90
2018-04-27T02:53:56.579Z,99.90
2018-04-27T02:56:25.036Z,99.90
2018-04-27T02:58:52.688Z,99.90
2018-04-27T03:01:20.459Z,99.90
2018-04-27T03:03:48.224Z,99.90
2018-04-27T03:06:15.904Z,99.90
2018-04-27T03:08:43.554Z,99.90
2018-04-27T03:11:11.224Z,99.90
2018-04-27T03:13:39.007Z,99.90
2018-04-27T03:16:06.643Z,99.90
2018-04-27T03:18:34.299Z,99.90
2018-04-27T03:21:01.951Z,99.90
2018-04-27T03:23:29.611Z,99.90
2018-04-27T03:25:58.046Z,99.90
2018-04-27T03:28:25.717Z,99.90
2018-04-27T03:30:53.375Z,99.90
2018-04-27T03:33:21.029Z,99.90
2018-04-27T03:35:48.695Z,99.90
2018-04-27T03:38:16.347Z,99.90
2018-04-27T03:40:43.989Z,99.90
2018-04-27T03:43:11.760Z,99.90
2018-04-27T03:45:39.416Z,99.90
2018-04-27T03:48:07.108Z,99.90
2018-04-27T03:50:34.776Z,99.90
2018-04-27T03:53:02.429Z,99.90
2018-04-27T03:55:30.104Z,99.90
2018-04-27T03:57:57.740Z,99.90
2018-04-27T04:00:31.368Z,99.90
2018-04-27T04:03:05.027Z,99.90
2018-04-27T04:05:32.681Z,99.90
2018-04-27T04:08:00.461Z,99.90
2018-04-27T04:10:28.111Z,99.90
2018-04-27T04:12:55.885Z,99.90
2018-04-27T04:15:23.531Z,99.90
2018-04-27T04:17:51.954Z,99.90
2018-04-27T04:20:19.604Z,99.90
2018-04-27T04:22:47.366Z,99.90
2018-04-27T04:25:15.033Z,99.90
2018-04-27T04:27:42.790Z,99.90
2018-04-27T04:30:10.471Z,99.90
2018-04-27T04:32:38.144Z,99.90
2018-04-27T04:35:05.810Z,99.90
2018-04-27T04:37:33.462Z,99.90
2018-04-27T04:40:01.124Z,99.90
2018-04-27T04:42:28.801Z,99.90
2018-04-27T04:44:56.455Z,99.90
2018-04-27T04:47:24.115Z,99.90
2018-04-27T04:49:51.771Z,99.90
2018-04-27T04:52:19.448Z,99.90
2018-04-27T04:54:47.103Z,99.90
2018-04-27T04:57:14.784Z,99.90
2018-04-27T04:59:42.524Z,99.90
2018-04-27T05:02:10.177Z,99.90
2018-04-27T05:04:37.827Z,99.90
2018-04-27T05:07:05.599Z,99.90
2018-04-27T05:09:33.245Z,99.90
2018-04-27T05:12:00.912Z,99.90
2018-04-27T05:14:28.568Z,99.90
2018-04-27T05:16:56.699Z,99.90
2018-04-27T05:19:24.340Z,99.90
2018-04-27T05:21:51.999Z,99.90
2018-04-27T05:24:19.763Z,99.90
2018-04-27T05:26:47.343Z,99.90
2018-04-27T05:29:15.006Z,99.90
2018-04-27T05:31:42.687Z,99.90
2018-04-27T05:34:10.345Z,99.90
2018-04-27T05:36:38.064Z,99.90
2018-04-27T05:39:05.753Z,99.90
2018-04-27T05:41:33.492Z,99.90
2018-04-27T05:44:01.163Z,99.90
2018-04-27T05:46:28.815Z,99.90
2018-04-27T05:48:56.530Z,99.90
2018-04-27T05:51:24.137Z,99.90
2018-04-27T05:53:51.804Z,99.90
2018-04-27T05:56:19.468Z,99.90
2018-04-27T05:58:47.255Z,99.90
2018-04-27T06:01:14.890Z,99.90
2018-04-27T06:03:48.471Z,99.90
2018-04-27T06:06:16.883Z,99.90
2018-04-27T06:08:44.627Z,99.90
2018-04-27T06:11:12.293Z,99.90
2018-04-27T06:13:41.947Z,99.90
2018-04-27T06:16:09.622Z,99.90
2018-04-27T06:18:37.281Z,99.90
2018-04-27T06:21:04.947Z,99.90
2018-04-27T06:23:32.627Z,99.90
2018-04-27T06:26:01.056Z,99.90
2018-04-27T06:28:28.737Z,99.90
2018-04-27T06:30:56.393Z,99.90
2018-04-27T06:33:24.139Z,99.90
2018-04-27T06:35:51.795Z,99.90
2018-04-27T06:38:19.475Z,99.90
2018-04-27T06:40:47.229Z,99.90
2018-04-27T06:43:14.900Z,99.90
2018-04-27T06:45:42.689Z,99.90
2018-04-27T06:48:10.413Z,99.90
2018-04-27T06:50:38.094Z,99.90
2018-04-27T06:53:05.780Z,99.90
2018-04-27T06:55:33.441Z,99.90
2018-04-27T06:58:01.159Z,99.90
2018-04-27T07:00:29.569Z,99.90
2018-04-27T07:02:57.287Z,99.90
2018-04-27T07:05:25.806Z,99.90
2018-04-27T07:07:53.456Z,99.90
2018-04-27T07:10:21.133Z,99.90
2018-04-27T07:12:48.787Z,99.90
2018-04-27T07:15:16.451Z,99.90
2018-04-27T07:17:44.508Z,99.90
2018-04-27T07:20:12.205Z,99.90
2018-04-27T07:22:39.855Z,99.90
2018-04-27T07:25:07.525Z,99.90
2018-04-27T07:27:35.196Z,99.90
2018-04-27T07:30:02.904Z,99.90
2018-04-27T07:32:31.335Z,99.90
2018-04-27T07:34:59.024Z,99.90
2018-04-27T07:37:26.696Z,99.90
2018-04-27T07:39:54.583Z,99.90
2018-04-27T07:42:23.084Z,99.90
2018-04-27T07:44:50.763Z,99.90
2018-04-27T07:47:18.454Z,99.90
2018-04-27T07:49:46.105Z,99.90
2018-04-27T07:52:13.768Z,99.90
2018-04-27T07:54:41.472Z,99.90
2018-04-27T07:57:09.210Z,99.90
2018-04-27T07:59:36.867Z,99.90
2018-04-27T08:02:04.570Z,99.90
2018-04-27T08:04:32.216Z,99.90
2018-04-27T08:06:59.879Z,99.90
2018-04-27T08:09:27.599Z,99.90
2018-04-27T08:11:55.249Z,99.90
2018-04-27T08:14:22.911Z,99.90
2018-04-27T08:16:50.569Z,99.90
2018-04-27T08:19:18.216Z,99.90
2018-04-27T08:21:45.890Z,99.90
2018-04-27T08:24:13.571Z,99.90
2018-04-27T08:26:41.319Z,99.90
2018-04-27T08:29:08.981Z,99.90
2018-04-27T08:31:36.690Z,99.90
2018-04-27T08:34:04.416Z,99.90
2018-04-27T08:36:32.222Z,99.90
2018-04-27T08:38:59.953Z,99.90
2018-04-27T08:41:27.649Z,99.90
2018-04-27T08:43:55.325Z,99.90
2018-04-27T08:46:23.031Z,99.90
2018-04-27T08:48:50.692Z,99.90
2018-04-27T08:51:18.503Z,99.90
2018-04-27T08:53:46.129Z,99.90
2018-04-27T08:56:13.795Z,99.90
2018-04-27T08:58:41.560Z,99.90
2018-04-27T09:01:09.234Z,99.90
2018-04-27T09:03:37.842Z,99.90
2018-04-27T09:06:05.504Z,99.90
2018-04-27T09:08:33.156Z,99.90
2018-04-27T09:11:00.895Z,99.90
2018-04-27T09:13:28.546Z,99.90
2018-04-27T09:15:56.218Z,99.90
2018-04-27T09:18:23.887Z,99.90
2018-04-27T09:20:51.557Z,99.90
2018-04-27T09:23:19.272Z,99.90
2018-04-27T09:25:46.947Z,99.90
2018-04-27T09:28:15.382Z,99.90
2018-04-27T09:30:43.117Z,99.90
2018-04-27T09:33:10.798Z,99.90
2018-04-27T09:35:38.460Z,99.90
2018-04-27T09:38:06.249Z,99.90
2018-04-27T09:40:33.871Z,99.90
2018-04-27T09:43:01.545Z,99.90
2018-04-27T09:45:29.195Z,99.90
2018-04-27T09:47:56.880Z,99.90
2018-04-27T09:50:24.561Z,99.90
2018-04-27T09:52:52.291Z,99.90
2018-04-27T09:55:19.940Z,99.90
2018-04-27T09:57:47.616Z,99.90
2018-04-27T10:00:15.284Z,99.90
2018-04-27T10:02:42.939Z,99.90
2018-04-27T10:05:10.611Z,99.90
2018-04-27T10:07:38.334Z,99.90
2018-04-27T10:10:06.840Z,99.90
2018-04-27T10:12:34.603Z,99.90
2018-04-27T10:15:02.392Z,99.90
2018-04-27T10:17:30.900Z,99.90
2018-04-27T10:19:58.619Z,99.90
2018-04-27T10:22:26.385Z,99.90
2018-04-27T10:24:54.052Z,99.90
2018-04-27T10:27:21.740Z,99.90
2018-04-27T10:29:49.484Z,99.90
2018-04-27T10:32:17.143Z,98.30
2018-04-27T10:34:44.802Z,98.50
2018-04-27T10:37:12.477Z,95.70
2018-04-27T10:39:40.138Z,95.50
2018-04-27T10:42:07.801Z,96.20
2018-04-27T10:44:35.451Z,93.00
2018-04-27T10:47:03.124Z,91.20
2018-04-27T10:49:30.787Z,92.90
2018-04-27T10:51:58.544Z,93.80
2018-04-27T10:54:26.210Z,94.20
2018-04-27T10:56:53.876Z,92.10
2018-04-27T10:59:21.550Z,94.70
2018-04-27T11:01:49.218Z,96.60
2018-04-27T11:04:16.880Z,95.40
2018-04-27T11:06:44.536Z,97.20
2018-04-27T11:09:12.203Z,94.40
2018-04-27T11:11:39.859Z,92.80
2018-04-27T11:14:07.620Z,91.80
2018-04-27T11:16:35.272Z,92.40
2018-04-27T11:19:02.948Z,96.00
2018-04-27T11:21:30.608Z,90.20
2018-04-27T11:23:58.407Z,91.50
2018-04-27T11:26:26.175Z,91.10
2018-04-27T11:28:53.893Z,91.60
2018-04-27T11:31:21.584Z,90.70
2018-04-27T11:33:49.330Z,92.70
2018-04-27T11:36:17.086Z,93.20
2018-04-27T11:38:44.762Z,92.60
2018-04-27T11:41:12.589Z,90.80
2018-04-27T11:43:40.290Z,91.10
2018-04-27T11:46:07.946Z,90.50
2018-04-27T11:48:35.607Z,91.60
2018-04-27T11:51:03.271Z,89.80
2018-04-27T11:53:30.958Z,89.90
2018-04-27T11:55:58.613Z,91.00
2018-04-27T11:58:26.287Z,91.70
2018-04-27T12:00:53.937Z,86.50
2018-04-27T12:03:21.614Z,85.90
2018-04-27T12:05:49.278Z,88.40
2018-04-27T12:08:17.361Z,85.00
2018-04-27T12:10:45.055Z,84.50
2018-04-27T12:13:12.672Z,83.80
2018-04-27T12:15:40.403Z,87.10
2018-04-27T12:18:08.213Z,84.50
2018-04-27T12:20:35.932Z,89.20
2018-04-27T12:23:03.609Z,78.60
2018-04-27T12:25:31.268Z,73.40
2018-04-27T12:27:58.967Z,75.50
2018-04-27T12:30:26.678Z,73.30
2018-04-27T12:32:54.356Z,67.80
2018-04-27T12:35:22.006Z,56.00
2018-04-27T12:37:49.664Z,55.30
2018-04-27T12:40:17.383Z,53.70
2018-04-27T12:42:45.099Z,51.80
2018-04-27T12:45:12.776Z,50.30
2018-04-27T12:47:40.588Z,50.60
2018-04-27T12:50:08.223Z,48.70
2018-04-27T12:52:35.959Z,48.60
2018-04-27T12:55:03.779Z,48.60
2018-04-27T12:57:31.450Z,48.50
2018-04-27T12:59:59.091Z,48.20
2018-04-27T13:02:26.832Z,48.60
2018-04-27T13:04:54.516Z,47.80
2018-04-27T13:07:22.196Z,46.70
2018-04-27T13:09:49.867Z,46.90
2018-04-27T13:12:17.623Z,48.70
2018-04-27T13:14:45.336Z,48.90
2018-04-27T13:17:12.996Z,49.70
2018-04-27T13:19:40.812Z,51.20
2018-04-27T13:22:08.435Z,48.70
2018-04-27T13:24:36.115Z,48.00
2018-04-27T13:27:03.896Z,46.40
2018-04-27T13:29:31.548Z,49.20
2018-04-27T13:31:59.227Z,50.10
2018-04-27T13:34:26.901Z,47.70
2018-04-27T13:36:54.616Z,47.50
2018-04-27T13:39:22.275Z,45.70
2018-04-27T13:41:49.935Z,46.70
2018-04-27T13:44:17.645Z,47.40
2018-04-27T13:46:45.284Z,46.30
2018-04-27T13:49:12.969Z,46.70
2018-04-27T13:51:40.623Z,46.10
2018-04-27T13:54:08.346Z,46.80
2018-04-27T13:56:36.012Z,47.00
2018-04-27T13:59:03.723Z,48.70
2018-04-27T14:01:31.387Z,48.80
2018-04-27T14:03:59.024Z,49.20
2018-04-27T14:06:26.684Z,47.70
2018-04-27T14:08:54.436Z,50.00
2018-04-27T14:11:22.150Z,50.50
2018-04-27T14:13:49.741Z,51.20
2018-04-27T14:16:18.375Z,48.30
2018-04-27T14:18:45.937Z,48.20
2018-04-27T14:21:13.608Z,49.10
2018-04-27T14:23:41.328Z,49.40
2018-04-27T14:26:09.091Z,50.40
2018-04-27T14:28:36.752Z,50.90
2018-04-27T14:31:04.433Z,52.70
2018-04-27T14:33:32.178Z,53.40
2018-04-27T14:35:59.856Z,54.10
2018-04-27T14:38:27.525Z,52.10
2018-04-27T14:40:55.254Z,52.50
2018-04-27T14:43:22.839Z,51.20
2018-04-27T14:45:50.519Z,50.50
2018-04-27T14:48:18.163Z,50.00
2018-04-27T14:50:45.830Z,48.90
2018-04-27T14:53:13.490Z,49.10
2018-04-27T14:55:41.173Z,49.30
2018-04-27T14:58:08.840Z,51.60
2018-04-27T15:00:36.585Z,50.70
2018-04-27T15:03:04.696Z,51.90
2018-04-27T15:05:32.359Z,50.50
2018-04-27T15:08:00.017Z,52.30
2018-04-27T15:10:27.749Z,52.00
2018-04-27T15:12:55.452Z,47.50
2018-04-27T15:15:23.217Z,48.60
2018-04-27T15:17:50.856Z,46.90
2018-04-27T15:20:18.542Z,47.50
2018-04-27T15:22:46.191Z,48.60
2018-04-27T15:25:13.931Z,48.20
2018-04-27T15:27:42.372Z,48.30
2018-04-27T15:30:10.049Z,48.30
2018-04-27T15:32:38.555Z,47.50
2018-04-27T15:35:06.304Z,47.40
2018-04-27T15:37:33.896Z,46.00
2018-04-27T15:40:01.678Z,45.60
2018-04-27T15:42:29.229Z,48.00
2018-04-27T15:44:56.970Z,46.90
2018-04-27T15:47:24.750Z,48.60
2018-04-27T15:49:52.424Z,49.50
2018-04-27T15:52:20.116Z,50.00
2018-04-27T15:54:47.784Z,50.90
2018-04-27T15:57:15.497Z,51.40
2018-04-27T15:59:43.155Z,52.80
2018-04-27T16:02:11.699Z,50.90
2018-04-27T16:04:40.257Z,49.80
2018-04-27T16:07:07.902Z,49.80
2018-04-27T16:09:35.557Z,50.90
2018-04-27T16:12:03.244Z,53.20
2018-04-27T16:14:30.884Z,50.50
2018-04-27T16:16:59.183Z,50.40
2018-04-27T16:19:26.847Z,51.30
2018-04-27T16:21:54.578Z,51.50
2018-04-27T16:24:22.268Z,49.40
2018-04-27T16:26:49.940Z,48.40
2018-04-27T16:29:17.598Z,51.30
2018-04-27T16:31:45.288Z,49.60
2018-04-27T16:34:12.953Z,51.00
2018-04-27T16:36:41.409Z,49.20
2018-04-27T16:39:09.059Z,49.00
2018-04-27T16:41:36.753Z,49.70
2018-04-27T16:44:05.212Z,48.70
2018-04-27T16:46:32.947Z,48.60
2018-04-27T16:49:00.640Z,48.70
2018-04-27T16:51:28.407Z,49.50
2018-04-27T16:53:56.047Z,49.10
2018-04-27T16:56:23.802Z,50.00
2018-04-27T16:58:51.562Z,49.20
2018-04-27T17:01:19.231Z,48.90
2018-04-27T17:03:47.191Z,48.60
2018-04-27T17:06:15.004Z,49.80
2018-04-27T17:08:42.860Z,51.50
2018-04-27T17:11:10.540Z,51.80
2018-04-27T17:13:38.225Z,53.10
2018-04-27T17:16:06.804Z,54.40
2018-04-27T17:18:34.513Z,54.30
2018-04-27T17:21:02.176Z,53.90
2018-04-27T17:23:29.851Z,53.80
2018-04-27T17:25:57.593Z,55.00
2018-04-27T17:28:25.296Z,53.50
2018-04-27T17:30:52.917Z,53.30
2018-04-27T17:33:20.587Z,54.20
2018-04-27T17:35:48.247Z,53.60
2018-04-27T17:38:15.920Z,53.20
2018-04-27T17:40:43.683Z,54.10
2018-04-27T17:43:11.360Z,52.00
2018-04-27T17:45:39.170Z,52.10
2018-04-27T17:48:06.808Z,53.50
2018-04-27T17:50:34.427Z,52.30
2018-04-27T17:53:02.188Z,52.70
2018-04-27T17:55:29.857Z,55.20
2018-04-27T17:57:57.517Z,53.60
2018-04-27T18:00:25.268Z,56.50
2018-04-27T18:02:52.930Z,57.70
2018-04-27T18:05:20.602Z,57.70
2018-04-27T18:07:48.378Z,58.10
2018-04-27T18:10:16.027Z,56.50
2018-04-27T18:12:43.700Z,56.60
2018-04-27T18:15:11.376Z,57.30
2018-04-27T18:17:40.005Z,58.70
2018-04-27T18:20:07.643Z,61.60
2018-04-27T18:22:35.329Z,58.80
2018-04-27T18:25:03.009Z,59.80
2018-04-27T18:27:31.555Z,60.80
2018-04-27T18:29:59.177Z,60.80
2018-04-27T18:32:26.855Z,63.90
2018-04-27T18:34:54.608Z,61.50
2018-04-27T18:37:22.348Z,63.80
2018-04-27T18:39:49.943Z,64.20
2018-04-27T18:42:17.605Z,65.60
2018-04-27T18:44:45.279Z,66.50
2018-04-27T18:47:12.931Z,65.50
2018-04-27T18:49:40.688Z,66.70
2018-04-27T18:52:08.355Z,66.50
2018-04-27T18:54:36.024Z,69.70
2018-04-27T18:57:03.711Z,69.90
2018-04-27T18:59:31.357Z,71.40
2018-04-27T19:01:59.790Z,71.30
2018-04-27T19:04:28.240Z,72.60
2018-04-27T19:06:55.892Z,72.50
2018-04-27T19:09:23.625Z,73.70
2018-04-27T19:11:51.275Z,74.90
2018-04-27T19:14:18.962Z,75.70
2018-04-27T19:16:46.615Z,78.40
2018-04-27T19:19:14.291Z,77.10
2018-04-27T19:21:41.954Z,78.70
2018-04-27T19:24:09.631Z,80.60
2018-04-27T19:26:37.976Z,83.30
2018-04-27T19:29:05.757Z,85.80
2018-04-27T19:31:33.409Z,84.50
2018-04-27T19:34:01.082Z,85.30
2018-04-27T19:36:28.842Z,86.00
2018-04-27T19:38:56.509Z,88.40
2018-04-27T19:41:24.165Z,89.00
2018-04-27T19:43:51.838Z,91.40
2018-04-27T19:46:19.501Z,91.50
2018-04-27T19:48:47.176Z,92.80
2018-04-27T19:51:14.840Z,93.70
2018-04-27T19:53:42.621Z,94.60
2018-04-27T19:56:10.267Z,95.30
2018-04-27T19:58:37.943Z,97.40
2018-04-27T20:01:05.609Z,98.00
2018-04-27T20:03:33.369Z,98.50
2018-04-27T20:06:01.033Z,99.80
2018-04-27T20:08:30.597Z,99.90
2018-04-27T20:10:59.053Z,99.90
2018-04-27T20:13:26.739Z,99.90
2018-04-27T20:15:58.210Z,99.90
2018-04-27T20:18:26.582Z,99.90
2018-04-27T20:20:57.995Z,99.90
2018-04-27T20:23:25.658Z,99.90
2018-04-27T20:25:53.437Z,99.90
2018-04-27T20:28:21.997Z,99.90
2018-04-27T20:30:49.683Z,99.90
2018-04-27T20:33:19.075Z,99.90
2018-04-27T20:35:46.713Z,99.90
2018-04-27T20:38:19.389Z,99.90
2018-04-27T20:40:47.068Z,99.90
2018-04-27T20:43:15.615Z,99.90
2018-04-27T20:45:43.285Z,99.90
2018-04-27T20:48:11.823Z,99.90
2018-04-27T20:50:39.493Z,99.90
2018-04-27T20:53:07.177Z,99.90
2018-04-27T20:55:34.918Z,99.90
2018-04-27T20:58:02.580Z,99.90
2018-04-27T21:00:30.256Z,99.90
2018-04-27T21:02:57.909Z,99.90
2018-04-27T21:05:25.592Z,99.90
2018-04-27T21:07:53.244Z,99.90
2018-04-27T21:10:20.911Z,99.90
2018-04-27T21:12:49.279Z,99.90
2018-04-27T21:15:16.973Z,99.90
2018-04-27T21:17:44.634Z,99.90
2018-04-27T21:20:13.067Z,99.90
2018-04-27T21:22:41.496Z,99.90
2018-04-27T21:25:09.240Z,99.90
2018-04-27T21:27:36.892Z,99.90
2018-04-27T21:30:04.645Z,99.90
2018-04-27T21:32:32.277Z,99.90
2018-04-27T21:34:59.958Z,99.90
2018-04-27T21:37:28.371Z,99.90
2018-04-27T21:39:56.049Z,99.90
2018-04-27T21:42:26.464Z,99.90
2018-04-27T21:44:56.904Z,99.90
2018-04-27T21:47:24.567Z,99.90
2018-04-27T21:49:52.236Z,99.90
2018-04-27T21:52:19.902Z,99.90
2018-04-27T21:54:47.560Z,99.90
2018-04-27T21:57:18.234Z,99.90
2018-04-27T21:59:46.776Z,99.90
2018-04-27T22:02:20.554Z,99.90
2018-04-27T22:04:48.204Z,99.90
2018-04-27T22:07:17.559Z,99.90
2018-04-27T22:09:49.309Z,99.90
2018-04-27T22:12:17.900Z,99.90
2018-04-27T22:14:45.657Z,99.90
2018-04-27T22:17:19.239Z,99.90
2018-04-27T22:19:47.002Z,99.90
2018-04-27T22:22:14.670Z,99.90
2018-04-27T22:24:44.216Z,99.90
2018-04-27T22:27:11.948Z,99.90
2018-04-27T22:29:39.591Z,99.90
2018-04-27T22:32:13.307Z,99.90
2018-04-27T22:34:50.939Z,99.90
2018-04-27T22:37:18.601Z,99.90
2018-04-27T22:39:52.056Z,99.90
2018-04-27T22:42:20.503Z,99.90
2018-04-27T22:44:52.012Z,99.90
2018-04-27T22:47:28.092Z,99.90
2018-04-27T22:49:55.758Z,99.90
2018-04-27T22:52:23.432Z,99.90
2018-04-27T22:54:51.135Z,99.90
2018-04-27T22:57:21.707Z,99.90
2018-04-27T22:59:50.115Z,99.90
2018-04-27T23:02:19.502Z,99.90
2018-04-27T23:04:54.815Z,99.90
2018-04-27T23:10:16.800Z,99.90
2018-04-27T23:12:48.251Z,99.90
2018-04-27T23:15:15.916Z,99.90
2018-04-27T23:17:43.589Z,99.90
2018-04-27T23:20:13.831Z,99.90
2018-04-27T23:22:42.334Z,99.90
2018-04-27T23:25:09.929Z,99.90
2018-04-27T23:27:37.603Z,99.90
2018-04-27T23:30:05.266Z,99.90
2018-04-27T23:32:33.812Z,99.90
2018-04-27T23:35:01.463Z,99.90
2018-04-27T23:37:29.136Z,99.90
2018-04-27T23:39:56.796Z,99.90
2018-04-27T23:42:27.222Z,99.90
2018-04-27T23:44:54.885Z,99.90
2018-04-27T23:47:22.560Z,99.90
2018-04-27T23:49:50.225Z,99.90
2018-04-27T23:52:17.973Z,99.90
2018-04-27T23:54:45.736Z,99.90
2018-04-27T23:57:13.408Z,99.90
2018-04-27T23:59:43.830Z,99.90
